Time;durP1;ratioP1;P1;durP2;ratioP2;P2;SDS_P1;SDS_P2;PMS_P1;PMS_P2;Temp;Humidity;BMP_temperature;BMP_pressure;BME280_temperature;BME280_humidity;BME280_pressure;Samples;Min_cycle;Max_cycle;Signal;HPM_P1;HPM_P2
2021/09/24 00:01:07;;;;;;;6.15;4.18;;;;;;;6.90;68.45;96749.94;5035604;28;20021;-67
2021/09/24 00:03:32;;;;;;;8.70;4.55;;;;;;;6.85;68.93;96754.34;5035534;28;20041;-67
2021/09/24 00:05:58;;;;;;;6.47;4.97;;;;;;;6.89;68.53;96764.69;5035425;28;20025;-67
2021/09/24 00:08:25;;;;;;;4.63;3.88;;;;;;;6.90;68.74;96765.53;5035418;28;20040;-67
2021/09/24 00:10:51;;;;;;;5.28;4.38;;;;;;;6.85;68.42;96756.97;5035415;28;20026;-67
2021/09/24 00:13:16;;;;;;;6.82;4.10;;;;;;;6.81;68.51;96758.78;5035068;28;20021;-67
2021/09/24 00:15:42;;;;;;;6.28;4.18;;;;;;;6.76;68.42;96758.00;5035364;28;20086;-67
2021/09/24 00:18:08;;;;;;;5.20;3.67;;;;;;;6.71;68.32;96755.47;5035138;28;20475;-67
2021/09/24 00:20:34;;;;;;;8.05;4.07;;;;;;;6.66;68.14;96749.53;5035210;28;20025;-67
2021/09/24 00:23:00;;;;;;;8.50;3.85;;;;;;;6.69;68.05;96749.47;5034091;28;20021;-67
2021/09/24 00:25:25;;;;;;;5.32;3.95;;;;;;;6.72;67.76;96746.81;5035018;28;20441;-67
2021/09/24 00:27:51;;;;;;;6.43;3.70;;;;;;;6.62;68.03;96742.69;5035032;28;20144;-67
2021/09/24 00:30:16;;;;;;;8.30;3.65;;;;;;;6.56;67.99;96744.50;5034986;28;20034;-67
2021/09/24 00:32:42;;;;;;;5.82;3.97;;;;;;;6.47;68.21;96741.22;5034919;28;20387;-67
2021/09/24 00:35:08;;;;;;;4.75;3.67;;;;;;;6.37;68.55;96735.31;5034935;28;20021;-68
2021/09/24 00:37:34;;;;;;;5.78;3.72;;;;;;;6.34;68.62;96736.25;5034784;28;20112;-68
2021/09/24 00:39:59;;;;;;;9.13;4.15;;;;;;;6.34;68.72;96731.03;5034747;28;20547;-67
2021/09/24 00:42:25;;;;;;;5.05;3.72;;;;;;;6.28;68.54;96736.34;5034705;28;20026;-68
2021/09/24 00:44:52;;;;;;;4.40;3.28;;;;;;;6.23;68.76;96735.59;5034663;28;20391;-68
2021/09/24 00:47:20;;;;;;;6.28;4.20;;;;;;;6.25;68.59;96736.41;5034504;28;20646;-67
2021/09/24 00:49:47;;;;;;;5.68;4.03;;;;;;;6.22;68.64;96723.44;5034635;28;20379;-67
2021/09/24 00:52:12;;;;;;;11.90;4.65;;;;;;;6.14;69.03;96731.41;5034677;28;20025;-68
2021/09/24 00:54:40;;;;;;;4.82;3.42;;;;;;;6.06;69.34;96723.75;5034465;28;20490;-68
2021/09/24 00:57:06;;;;;;;12.43;4.25;;;;;;;6.03;69.97;96731.56;5034448;28;20028;-68
2021/09/24 00:59:31;;;;;;;5.68;3.60;;;;;;;5.99;69.31;96725.53;5034374;28;20543;-67
2021/09/24 01:01:58;;;;;;;6.90;4.68;;;;;;;5.96;69.15;96722.16;5034522;28;20025;-68
2021/09/24 01:04:24;;;;;;;5.00;3.28;;;;;;;5.92;69.07;96714.41;5033024;28;20029;-67
2021/09/24 01:06:50;;;;;;;6.13;3.83;;;;;;;5.78;69.56;96716.38;5034232;28;20075;-68
2021/09/24 01:09:16;;;;;;;6.28;3.95;;;;;;;5.75;69.64;96713.84;5034394;28;20035;-68
2021/09/24 01:11:42;;;;;;;5.43;4.05;;;;;;;5.75;70.13;96709.47;5034093;28;20022;-67
2021/09/24 01:14:08;;;;;;;4.57;3.67;;;;;;;5.72;69.53;96706.09;5033900;28;20041;-67
2021/09/24 01:16:33;;;;;;;7.70;4.15;;;;;;;5.68;70.53;96702.66;5034118;28;20025;-68
2021/09/24 01:18:59;;;;;;;7.75;4.60;;;;;;;5.74;70.10;96704.31;5034056;28;20104;-67
2021/09/24 01:21:25;;;;;;;4.82;3.83;;;;;;;5.71;69.94;96704.34;5034119;28;20056;-67
2021/09/24 01:23:52;;;;;;;7.95;3.85;;;;;;;5.64;70.25;96704.47;5033922;28;20040;-67
2021/09/24 01:26:17;;;;;;;5.82;4.00;;;;;;;5.61;70.09;96699.31;5033857;28;20060;-67
2021/09/24 01:28:47;;;;;;;5.72;4.10;;;;;;;5.62;69.95;96697.56;5033910;28;20026;-67
2021/09/24 01:31:14;;;;;;;5.78;4.20;;;;;;;5.63;70.28;96691.53;5033840;28;20503;-67
2021/09/24 01:33:47;;;;;;;7.68;4.15;;;;;;;5.57;70.54;96692.47;5033613;28;20167;-67
2021/09/24 01:36:13;;;;;;;5.43;3.80;;;;;;;5.57;70.24;96689.88;5033758;28;20060;-68
2021/09/24 01:38:39;;;;;;;6.85;4.25;;;;;;;5.56;70.11;96688.16;5033553;28;20057;-68
2021/09/24 01:41:06;;;;;;;6.47;4.40;;;;;;;5.52;69.82;96694.28;5033635;28;20091;-67
2021/09/24 01:43:36;;;;;;;10.65;4.30;;;;;;;5.49;69.99;96686.53;5033633;28;20036;-67
2021/09/24 01:46:03;;;;;;;10.10;4.73;;;;;;;5.47;69.95;96693.47;5033484;28;20040;-68
2021/09/24 01:48:29;;;;;;;5.70;4.20;;;;;;;5.46;69.93;96692.63;5033346;28;20036;-67
2021/09/24 01:50:54;;;;;;;7.05;4.72;;;;;;;5.45;70.34;96701.31;5033539;28;20033;-68
2021/09/24 01:53:20;;;;;;;5.32;4.10;;;;;;;5.42;70.22;96694.41;5033590;28;20021;-68
2021/09/24 01:55:46;;;;;;;7.93;4.07;;;;;;;5.38;69.26;96690.16;5033400;28;20445;-68
2021/09/24 01:58:12;;;;;;;8.85;4.13;;;;;;;5.37;70.10;96698.81;5033374;28;20022;-68
2021/09/24 02:00:38;;;;;;;5.63;4.45;;;;;;;5.30;70.47;96687.66;5033312;28;20029;-68
2021/09/24 02:03:03;;;;;;;7.07;4.05;;;;;;;5.25;70.90;96686.88;5033265;28;20113;-67
2021/09/24 02:05:29;;;;;;;6.10;4.18;;;;;;;5.22;70.24;96686.06;5033291;28;20045;-68
2021/09/24 02:07:54;;;;;;;6.53;4.80;;;;;;;5.16;71.38;96668.84;5033280;28;20037;-68
2021/09/24 02:10:20;;;;;;;7.63;4.85;;;;;;;5.15;70.83;96673.16;5033383;28;20079;-68
2021/09/24 02:12:45;;;;;;;5.88;4.18;;;;;;;5.15;71.08;96669.75;5033222;28;20022;-68
2021/09/24 02:15:12;;;;;;;7.53;4.20;;;;;;;5.17;70.85;96657.59;5033001;28;20111;-68
2021/09/24 02:17:38;;;;;;;6.85;4.60;;;;;;;5.09;70.39;96660.28;5033178;28;20044;-67
2021/09/24 02:20:05;;;;;;;7.25;5.15;;;;;;;5.03;71.08;96665.59;5033114;28;20026;-68
2021/09/24 02:22:31;;;;;;;7.30;4.45;;;;;;;5.01;70.65;96655.22;5033038;28;20025;-68
2021/09/24 02:24:56;;;;;;;5.78;4.63;;;;;;;5.03;70.41;96663.00;5033050;28;20538;-68
2021/09/24 02:27:22;;;;;;;5.93;4.70;;;;;;;5.02;70.45;96662.13;5032989;28;20025;-68
2021/09/24 02:29:47;;;;;;;6.82;4.75;;;;;;;4.96;71.50;96656.19;5031769;28;20029;-68
2021/09/24 02:32:13;;;;;;;8.85;5.63;;;;;;;4.92;72.32;96658.81;5032889;28;20484;-67
2021/09/24 02:34:39;;;;;;;6.25;4.50;;;;;;;4.92;72.45;96655.34;5033067;28;20021;-68
2021/09/24 02:37:04;;;;;;;6.25;4.82;;;;;;;4.91;71.17;96658.84;5033060;28;20029;-68
2021/09/24 02:39:30;;;;;;;8.18;4.65;;;;;;;4.92;71.31;96670.91;5032959;28;20383;-68
2021/09/24 02:41:56;;;;;;;9.93;5.13;;;;;;;4.88;70.99;96664.06;5032939;28;20371;-68
2021/09/24 02:44:21;;;;;;;5.70;4.07;;;;;;;4.87;71.13;96655.41;5032817;28;20022;-68
2021/09/24 02:46:47;;;;;;;7.53;4.85;;;;;;;4.88;70.96;96651.94;5035780;28;20021;-68
2021/09/24 02:49:12;;;;;;;7.43;4.78;;;;;;;4.82;71.27;96644.25;5036932;28;20029;-68
2021/09/24 02:51:38;;;;;;;7.35;5.07;;;;;;;4.83;71.85;96645.97;5036766;28;20405;-68
2021/09/24 02:54:04;;;;;;;7.05;5.07;;;;;;;4.86;71.75;96656.31;5036708;28;20029;-68
2021/09/24 02:56:30;;;;;;;6.65;4.20;;;;;;;4.85;71.07;96651.97;5036752;28;20079;-68
2021/09/24 02:58:56;;;;;;;6.68;4.75;;;;;;;4.79;71.12;96647.72;5036768;28;20044;-68
2021/09/24 03:01:22;;;;;;;7.82;4.50;;;;;;;4.79;70.99;96654.66;5036732;28;20030;-68
2021/09/24 03:03:48;;;;;;;6.03;4.78;;;;;;;4.74;71.15;96657.31;5036494;28;20528;-68
2021/09/24 03:06:13;;;;;;;7.38;4.85;;;;;;;4.71;71.19;96662.53;5036480;28;20043;-68
2021/09/24 03:08:39;;;;;;;11.63;4.65;;;;;;;4.72;70.93;96666.84;5036438;28;20375;-68
2021/09/24 03:11:05;;;;;;;7.53;4.85;;;;;;;4.67;70.93;96679.84;5036433;28;20096;-67
2021/09/24 03:13:31;;;;;;;7.28;5.40;;;;;;;4.57;72.23;96673.06;5036302;28;20049;-68
2021/09/24 03:15:58;;;;;;;9.05;4.80;;;;;;;4.58;72.14;96671.34;5036415;28;20378;-68
2021/09/24 03:18:23;;;;;;;9.73;5.70;;;;;;;4.49;72.19;96667.13;5036326;28;20061;-68
2021/09/24 03:20:51;;;;;;;8.20;5.85;;;;;;;4.40;73.22;96676.69;5036504;28;20057;-67
2021/09/24 03:23:18;;;;;;;8.93;5.03;;;;;;;4.38;73.07;96672.41;5036499;28;20037;-68
2021/09/24 03:25:46;;;;;;;8.55;5.18;;;;;;;4.34;73.32;96683.69;5035086;28;20060;-67
2021/09/24 03:28:12;;;;;;;9.38;5.18;;;;;;;4.21;73.95;96680.38;5036026;28;20033;-68
2021/09/24 03:30:37;;;;;;;7.20;5.07;;;;;;;4.25;74.00;96676.88;5036085;28;20143;-68
2021/09/24 03:33:03;;;;;;;8.88;4.90;;;;;;;4.26;73.38;96674.28;5036116;28;20108;-68
2021/09/24 03:35:29;;;;;;;6.97;5.38;;;;;;;4.30;72.93;96669.91;5036081;28;20021;-68
2021/09/24 03:37:54;;;;;;;9.70;5.13;;;;;;;4.30;72.77;96669.91;5036165;28;20021;-68
2021/09/24 03:40:20;;;;;;;7.47;4.95;;;;;;;4.30;72.74;96672.50;5035853;28;20021;-68
2021/09/24 03:42:46;;;;;;;8.50;5.13;;;;;;;4.30;72.91;96670.78;5035974;28;20025;-67
2021/09/24 03:45:12;;;;;;;8.38;5.72;;;;;;;4.25;73.15;96669.13;5035777;28;20040;-68
2021/09/24 03:47:38;;;;;;;8.65;5.43;;;;;;;4.27;72.92;96675.97;5035803;28;20476;-68
2021/09/24 03:50:04;;;;;;;8.38;5.30;;;;;;;4.24;73.61;96672.59;5035751;28;20036;-68
2021/09/24 03:52:30;;;;;;;8.35;5.95;;;;;;;4.16;73.50;96667.47;5035606;28;20064;-68
2021/09/24 03:54:56;;;;;;;12.05;5.28;;;;;;;4.12;74.02;96669.22;5035619;28;20053;-67
2021/09/24 03:57:21;;;;;;;9.43;5.75;;;;;;;4.16;73.12;96657.13;5035516;28;20029;-68
2021/09/24 03:59:47;;;;;;;10.25;4.95;;;;;;;4.17;72.97;96656.25;5035624;28;20101;-68
2021/09/24 04:02:13;;;;;;;7.97;5.25;;;;;;;4.19;72.75;96656.22;5035458;28;20025;-68
2021/09/24 04:04:38;;;;;;;6.72;5.25;;;;;;;4.17;72.64;96648.47;5035567;28;20026;-67
2021/09/24 04:07:05;;;;;;;7.93;5.05;;;;;;;4.24;72.71;96659.63;5035499;28;20113;-68
2021/09/24 04:09:31;;;;;;;6.60;5.05;;;;;;;4.30;72.53;96664.72;5035603;28;20380;-67
2021/09/24 04:11:57;;;;;;;8.50;5.55;;;;;;;4.30;72.27;96657.81;5035447;28;20024;-68
2021/09/24 04:14:22;;;;;;;9.65;5.60;;;;;;;4.33;72.18;96656.94;5035053;28;20084;-68
2021/09/24 04:16:48;;;;;;;10.10;5.35;;;;;;;4.37;71.94;96650.00;5035322;28;20018;-68
2021/09/24 04:19:13;;;;;;;13.65;5.45;;;;;;;4.35;72.08;96652.59;5035234;28;20033;-68
2021/09/24 04:21:39;;;;;;;11.27;5.15;;;;;;;4.29;72.31;96643.16;5035402;28;20025;-68
2021/09/24 04:24:05;;;;;;;12.48;5.53;;;;;;;4.37;71.70;96656.00;5035143;28;20479;-68
2021/09/24 04:26:30;;;;;;;8.35;5.47;;;;;;;4.34;71.89;96657.78;5034984;28;20379;-68
2021/09/24 04:28:56;;;;;;;7.95;4.25;;;;;;;4.37;71.81;96661.19;5034868;28;20028;-68
2021/09/24 04:31:22;;;;;;;9.60;5.10;;;;;;;4.41;72.60;96655.13;5034904;28;20021;-67
2021/09/24 04:33:47;;;;;;;7.68;5.50;;;;;;;4.42;72.67;96654.22;5034973;28;20447;-67
2021/09/24 04:36:13;;;;;;;12.80;6.13;;;;;;;4.50;73.22;96654.16;5034924;28;20017;-68
2021/09/24 04:38:38;;;;;;;9.55;5.40;;;;;;;4.66;73.81;96652.22;5034873;28;20029;-68
2021/09/24 04:41:04;;;;;;;7.55;4.65;;;;;;;4.78;72.98;96648.63;5034886;28;20116;-68
2021/09/24 04:43:30;;;;;;;6.97;5.22;;;;;;;4.90;72.99;96649.31;5034709;28;20022;-67
2021/09/24 04:45:56;;;;;;;8.00;5.40;;;;;;;5.01;72.90;96644.00;5034802;28;20018;-68
2021/09/24 04:48:21;;;;;;;7.15;5.18;;;;;;;5.17;73.28;96648.09;5034465;28;20033;-67
2021/09/24 04:50:47;;;;;;;10.30;4.88;;;;;;;5.30;73.20;96642.72;5034594;28;20112;-68
2021/09/24 04:53:12;;;;;;;7.05;4.95;;;;;;;5.73;73.30;96640.28;5034649;28;20061;-68
2021/09/24 04:55:38;;;;;;;7.03;4.57;;;;;;;6.02;71.71;96639.78;5034627;28;20047;-68
2021/09/24 04:58:03;;;;;;;5.82;4.50;;;;;;;6.13;71.53;96633.56;5034417;28;20018;-68
2021/09/24 05:00:29;;;;;;;5.43;4.43;;;;;;;6.23;71.51;96629.91;5034411;28;20048;-67
2021/09/24 05:02:55;;;;;;;8.45;5.35;;;;;;;6.31;71.77;96625.44;5034302;28;20037;-67
2021/09/24 05:05:21;;;;;;;9.20;5.05;;;;;;;6.52;71.82;96630.22;5034409;28;20371;-68
2021/09/24 05:07:48;;;;;;;6.72;4.75;;;;;;;6.91;71.91;96632.88;5034000;28;20036;-68
2021/09/24 05:10:14;;;;;;;7.95;5.47;;;;;;;7.06;71.71;96634.28;5034204;28;20032;-67
2021/09/24 05:12:39;;;;;;;7.35;4.85;;;;;;;7.18;71.47;96627.94;5034162;28;20021;-68
2021/09/24 05:15:05;;;;;;;6.85;4.88;;;;;;;7.33;72.86;96629.34;5033918;28;20499;-68
2021/09/24 05:17:32;;;;;;;7.03;4.47;;;;;;;7.41;72.40;96625.69;5034153;28;20071;-67
2021/09/24 05:19:57;;;;;;;9.15;4.88;;;;;;;7.51;72.34;96618.50;5034102;28;20045;-69
2021/09/24 05:22:23;;;;;;;8.45;4.93;;;;;;;7.61;71.71;96629.56;5033997;28;20026;-68
2021/09/24 05:24:48;;;;;;;9.73;5.28;;;;;;;7.70;72.65;96624.09;5033987;28;20031;-68
2021/09/24 05:27:14;;;;;;;5.90;4.80;;;;;;;7.81;72.01;96621.25;5033874;28;20079;-67
2021/09/24 05:29:40;;;;;;;7.55;5.60;;;;;;;7.92;71.63;96629.63;5033896;28;20024;-68
2021/09/24 05:32:06;;;;;;;6.70;4.95;;;;;;;8.04;71.22;96622.41;5033947;28;20061;-67
2021/09/24 05:34:31;;;;;;;8.52;5.55;;;;;;;8.21;71.42;96625.41;5033706;28;20028;-67
2021/09/24 05:36:57;;;;;;;6.10;5.10;;;;;;;8.38;71.10;96631.91;5033759;28;20025;-67
2021/09/24 05:39:22;;;;;;;7.90;5.10;;;;;;;8.64;70.60;96626.88;5033745;28;20029;-67
2021/09/24 05:41:48;;;;;;;6.07;4.50;;;;;;;9.82;68.26;96625.81;5033884;28;20163;-69
2021/09/24 05:44:13;;;;;;;5.53;3.85;;;;;;;11.68;61.84;96623.44;5033638;28;20490;-68
2021/09/24 05:46:41;;;;;;;4.53;3.70;;;;;;;13.32;56.27;96618.91;5033474;28;20499;-66
2021/09/24 05:49:07;;;;;;;6.20;3.58;;;;;;;14.95;49.92;96622.19;5033456;28;20026;-68
2021/09/24 05:51:33;;;;;;;3.47;2.90;;;;;;;16.63;46.16;96609.97;5033462;28;20055;-67
2021/09/24 05:53:59;;;;;;;4.45;3.17;;;;;;;17.93;40.62;96609.75;5033416;28;20538;-68
2021/09/24 05:56:24;;;;;;;5.00;2.97;;;;;;;19.11;37.94;96615.97;5033435;28;20049;-69
2021/09/24 05:58:50;;;;;;;5.55;3.05;;;;;;;20.19;36.26;96617.81;5033506;28;20017;-67
2021/09/24 06:01:16;;;;;;;3.50;2.80;;;;;;;21.28;34.28;96611.22;5033558;28;20384;-67
2021/09/24 06:03:42;;;;;;;3.03;2.72;;;;;;;22.09;32.85;96602.00;5033506;28;20037;-67
2021/09/24 06:06:07;;;;;;;4.90;3.25;;;;;;;22.80;32.42;96604.09;5033293;28;20013;-67
2021/09/24 06:08:33;;;;;;;3.45;3.00;;;;;;;23.42;30.19;96606.69;5031921;28;20034;-67
2021/09/24 06:10:59;;;;;;;3.00;2.70;;;;;;;24.19;29.20;96608.72;5033230;28;20021;-67
2021/09/24 06:13:24;;;;;;;4.57;2.90;;;;;;;24.61;29.76;96612.88;5033036;28;20476;-67
2021/09/24 06:15:50;;;;;;;3.30;2.70;;;;;;;25.14;28.66;96614.22;5033296;28;20029;-67
2021/09/24 06:18:16;;;;;;;3.75;2.78;;;;;;;25.28;26.30;96613.72;5033124;28;20056;-67
2021/09/24 06:20:42;;;;;;;4.25;2.70;;;;;;;25.52;26.77;96600.78;5032246;28;20179;-67
2021/09/24 06:23:08;;;;;;;3.70;2.60;;;;;;;25.61;27.52;96599.88;5033124;28;20036;-66
2021/09/24 06:25:34;;;;;;;4.00;3.05;;;;;;;25.39;27.77;96593.94;5033053;28;20387;-67
2021/09/24 06:27:59;;;;;;;8.30;3.22;;;;;;;24.65;27.44;96600.03;5032861;28;20030;-67
2021/09/24 06:30:26;;;;;;;3.35;2.97;;;;;;;24.73;28.52;96608.19;5032973;28;20060;-66
2021/09/24 06:32:53;;;;;;;3.60;2.75;;;;;;;24.28;28.88;96608.84;5032923;28;20395;-66
2021/09/24 06:35:19;;;;;;;4.50;3.08;;;;;;;23.99;28.60;96602.53;5033069;28;20025;-66
2021/09/24 06:37:45;;;;;;;3.90;3.20;;;;;;;23.78;29.78;96606.19;5032995;28;20036;-66
2021/09/24 06:40:12;;;;;;;4.75;3.20;;;;;;;23.65;29.92;96601.13;5032965;28;20091;-67
2021/09/24 06:42:38;;;;;;;3.58;3.03;;;;;;;23.60;31.47;96598.03;5032930;28;20017;-66
2021/09/24 06:45:06;;;;;;;4.28;3.17;;;;;;;23.45;31.01;96590.41;5032854;28;20375;-66
2021/09/24 06:47:32;;;;;;;5.68;2.97;;;;;;;23.50;29.99;96590.00;5032800;28;20033;-66
2021/09/24 06:49:57;;;;;;;3.75;2.80;;;;;;;23.67;28.39;96585.81;5032873;28;20100;-67
2021/09/24 06:52:23;;;;;;;3.33;3.00;;;;;;;23.85;29.86;96587.78;5032938;28;20076;-67
2021/09/24 06:54:50;;;;;;;4.40;2.92;;;;;;;23.84;28.56;96599.47;5032814;28;20025;-66
2021/09/24 06:57:16;;;;;;;3.15;2.85;;;;;;;23.58;29.54;96592.84;5032589;28;20026;-66
2021/09/24 06:59:42;;;;;;;3.90;2.80;;;;;;;23.20;29.60;96597.06;5032751;28;20033;-67
2021/09/24 07:02:08;;;;;;;4.15;2.97;;;;;;;23.02;30.10;96611.06;5032742;28;20034;-67
2021/09/24 07:04:33;;;;;;;3.60;2.88;;;;;;;22.86;30.92;96606.25;5032742;28;20083;-67
2021/09/24 07:06:59;;;;;;;3.28;2.60;;;;;;;22.56;29.86;96602.56;5032650;28;20372;-67
2021/09/24 07:09:25;;;;;;;6.32;3.42;;;;;;;22.32;31.07;96604.53;5032780;28;20431;-67
2021/09/24 07:11:51;;;;;;;3.78;2.95;;;;;;;22.16;31.73;96609.47;5032699;28;20053;-67
2021/09/24 07:14:19;;;;;;;4.15;3.58;;;;;;;22.03;31.27;96599.84;5032431;28;20052;-67
2021/09/24 07:16:48;;;;;;;4.45;2.63;;;;;;;21.70;33.18;96596.34;5032645;28;20024;-67
2021/09/24 07:19:14;;;;;;;3.35;2.70;;;;;;;21.66;33.83;96602.88;5032498;28;20022;-67
2021/09/24 07:21:40;;;;;;;5.95;3.45;;;;;;;21.48;31.95;96618.53;5032548;28;20029;-67
2021/09/24 07:24:07;;;;;;;3.47;3.05;;;;;;;21.44;32.80;96615.31;5032635;28;20017;-67
2021/09/24 07:26:33;;;;;;;3.00;2.60;;;;;;;21.37;33.97;96619.44;5032613;28;20060;-67
2021/09/24 07:28:59;;;;;;;3.30;2.65;;;;;;;21.23;33.75;96616.06;5032456;28;20025;-67
2021/09/24 07:31:25;;;;;;;3.35;2.95;;;;;;;21.16;33.90;96618.38;5033132;28;20031;-67
2021/09/24 07:33:51;;;;;;;4.43;3.08;;;;;;;21.11;34.92;96617.03;5035934;28;20376;-67
2021/09/24 07:36:19;;;;;;;4.30;3.03;;;;;;;21.18;34.03;96612.94;5036153;28;20391;-67
2021/09/24 07:38:46;;;;;;;3.50;2.75;;;;;;;21.38;33.59;96619.31;5036113;28;20025;-67
2021/09/24 07:41:13;;;;;;;5.82;3.05;;;;;;;21.57;33.50;96625.78;5036152;28;20025;-67
2021/09/24 07:43:39;;;;;;;8.88;2.85;;;;;;;21.59;32.43;96616.69;5036153;28;20353;-67
2021/09/24 07:46:05;;;;;;;7.70;3.42;;;;;;;21.63;32.52;96609.31;5036023;28;20025;-67
2021/09/24 07:48:31;;;;;;;5.57;3.13;;;;;;;21.62;32.93;96607.63;5035882;28;20104;-67
2021/09/24 07:50:57;;;;;;;6.03;3.40;;;;;;;21.42;34.00;96611.91;5035806;28;20492;-67
2021/09/24 07:53:23;;;;;;;3.75;2.95;;;;;;;21.47;32.83;96601.75;5035699;28;20108;-67
2021/09/24 07:55:49;;;;;;;4.90;3.13;;;;;;;21.49;34.06;96612.28;5035712;28;20152;-67
2021/09/24 07:58:14;;;;;;;4.28;3.10;;;;;;;21.57;32.58;96615.13;5035701;28;20063;-67
2021/09/24 08:00:40;;;;;;;3.35;3.05;;;;;;;21.56;32.06;96614.31;5035661;28;20067;-67
2021/09/24 08:03:06;;;;;;;3.22;2.90;;;;;;;21.57;31.48;96620.47;5035594;28;20070;-67
2021/09/24 08:05:32;;;;;;;3.95;2.88;;;;;;;21.44;31.40;96621.47;5035569;28;20502;-67
2021/09/24 08:07:58;;;;;;;4.07;3.03;;;;;;;21.49;31.68;96628.22;5035307;28;20057;-67
2021/09/24 08:10:25;;;;;;;4.35;3.20;;;;;;;21.54;30.22;96629.53;5035510;28;20061;-67
2021/09/24 08:12:51;;;;;;;4.78;3.08;;;;;;;21.52;29.89;96633.31;5035391;28;20075;-67
2021/09/24 08:15:17;;;;;;;4.25;3.38;;;;;;;21.59;30.05;96622.00;5035093;28;20049;-67
2021/09/24 08:17:43;;;;;;;3.78;3.03;;;;;;;21.62;31.38;96622.75;5035297;28;20100;-67
2021/09/24 08:20:09;;;;;;;3.97;3.20;;;;;;;21.82;31.22;96614.00;5035120;28;20387;-67
2021/09/24 08:22:38;;;;;;;3.35;2.90;;;;;;;21.77;31.13;96615.34;5035390;28;20108;-67
2021/09/24 08:25:08;;;;;;;3.67;2.72;;;;;;;21.52;30.57;96599.53;5035250;28;20034;-67
2021/09/24 08:27:34;;;;;;;;;;;;;;;21.29;33.07;96602.28;5035580;28;20037;-67
2021/09/24 08:30:01;;;;;;;4.25;3.47;;;;;;;21.21;33.34;96591.41;5035002;28;19913;-67
2021/09/24 08:32:27;;;;;;;4.55;3.38;;;;;;;21.32;31.24;96578.09;5035141;28;20102;-67
2021/09/24 08:34:52;;;;;;;5.07;2.83;;;;;;;20.98;32.06;96574.66;5034928;28;20108;-67
2021/09/24 08:37:18;;;;;;;5.07;3.15;;;;;;;20.78;34.05;96574.38;5034934;28;20022;-67
2021/09/24 08:39:44;;;;;;;3.33;3.00;;;;;;;20.98;31.41;96572.00;5034800;28;20075;-67
2021/09/24 08:42:11;;;;;;;4.65;3.17;;;;;;;21.12;31.46;96566.41;5034770;28;20022;-67
2021/09/24 08:44:37;;;;;;;6.63;2.97;;;;;;;21.17;31.56;96560.72;5033934;28;20053;-67
2021/09/24 08:47:03;;;;;;;4.55;2.97;;;;;;;21.01;32.20;96563.78;5034812;28;20464;-67
2021/09/24 08:49:29;;;;;;;3.30;2.85;;;;;;;20.99;31.64;96557.72;5034873;28;20464;-67
2021/09/24 08:51:54;;;;;;;5.80;2.72;;;;;;;21.25;30.95;96568.91;5034666;28;20022;-67
2021/09/24 08:54:20;;;;;;;3.80;3.13;;;;;;;21.31;30.58;96565.75;5034546;28;20025;-67
2021/09/24 08:56:46;;;;;;;3.92;3.20;;;;;;;21.45;30.51;96563.78;5034583;28;20018;-67
2021/09/24 08:59:12;;;;;;;3.50;2.85;;;;;;;21.49;32.11;96565.19;5034548;28;20056;-67
2021/09/24 09:01:57;;;;;;;4.22;3.00;;;;;;;21.53;31.72;96569.31;5034465;28;20467;-67
2021/09/24 09:04:34;;;;;;;3.00;2.67;;;;;;;21.47;32.32;96559.19;5034468;28;20044;-67
2021/09/24 09:07:11;;;;;;;4.78;3.40;;;;;;;21.24;34.21;96543.28;5034284;28;20111;-67
2021/09/24 09:09:41;;;;;;;3.67;2.95;;;;;;;21.28;32.89;96550.03;5034348;28;20044;-67
2021/09/24 09:12:18;;;;;;;5.43;3.30;;;;;;;21.16;31.83;96554.53;5034291;28;20053;-67
2021/09/24 09:15:06;;;;;;;5.55;3.13;;;;;;;21.18;34.11;96551.75;5033968;28;20056;-67
2021/09/24 09:17:34;;;;;;;5.88;3.10;;;;;;;21.08;34.07;96551.66;5030549;28;20380;-67
2021/09/24 09:20:20;;;;;;;3.65;2.90;;;;;;;21.11;30.97;96547.91;5034045;28;20033;-67
2021/09/24 09:23:06;;;;;;;5.75;3.00;;;;;;;21.10;30.30;96541.75;5034120;28;20103;-67
2021/09/24 09:25:31;;;;;;;3.55;2.78;;;;;;;20.88;30.27;96538.13;5032907;28;20411;-67
2021/09/24 09:28:09;;;;;;;4.88;2.75;;;;;;;20.97;31.38;96533.91;5033888;28;20029;-67
2021/09/24 09:30:38;;;;;;;4.22;2.75;;;;;;;21.04;31.74;96537.75;5033864;28;20487;-67
2021/09/24 09:33:14;;;;;;;3.58;3.03;;;;;;;21.30;31.58;96536.63;5033837;28;20021;-67
2021/09/24 09:36:00;;;;;;;3.58;2.83;;;;;;;21.44;29.81;96535.50;5033935;28;20048;-67
2021/09/24 09:38:33;;;;;;;4.20;2.63;;;;;;;21.29;29.24;96535.78;5033718;28;20032;-67
2021/09/24 09:41:03;;;;;;;4.88;2.88;;;;;;;21.25;31.17;96533.50;5033785;28;20080;-67
2021/09/24 09:43:44;;;;;;;4.13;2.70;;;;;;;21.26;31.32;96529.88;5034028;28;20434;-67
2021/09/24 09:46:13;;;;;;;3.92;2.90;;;;;;;21.36;31.58;96521.97;5033742;28;20258;-67
2021/09/24 09:48:40;;;;;;;6.07;3.17;;;;;;;21.18;30.25;96520.69;5033493;28;20060;-67
2021/09/24 09:51:06;;;;;;;4.80;3.33;;;;;;;21.24;31.26;96510.53;5033479;28;20049;-67
2021/09/24 09:53:32;;;;;;;3.35;2.70;;;;;;;21.20;31.00;96509.94;5033562;28;20102;-67
2021/09/24 09:56:08;;;;;;;3.00;2.53;;;;;;;21.18;31.38;96523.38;5033320;28;20013;-67
2021/09/24 09:58:38;;;;;;;3.75;2.78;;;;;;;21.32;30.37;96526.69;5033480;28;20028;-67
2021/09/24 10:01:05;;;;;;;;;;;;;;;21.25;30.31;96523.69;5033790;28;20033;-67
2021/09/24 10:03:43;;;;;;;3.47;2.60;;;;;;;21.02;29.34;96509.63;5033364;28;20381;-67
2021/09/24 10:06:32;;;;;;;4.93;2.80;;;;;;;20.81;29.72;96502.38;5033463;28;20029;-67
2021/09/24 10:09:00;;;;;;;3.83;2.70;;;;;;;20.53;32.18;96499.28;5033315;28;20394;-67
2021/09/24 10:11:41;;;;;;;3.03;2.70;;;;;;;20.36;30.46;96495.28;5033244;28;20434;-67
2021/09/24 10:14:09;;;;;;;3.72;2.67;;;;;;;20.48;30.79;96497.00;5033012;28;20129;-67
2021/09/24 10:16:41;;;;;;;6.70;2.97;;;;;;;20.21;30.59;96490.22;5033233;28;20032;-67
2021/09/24 10:19:08;;;;;;;3.67;2.53;;;;;;;20.30;31.39;96489.53;5033223;28;20491;-67
2021/09/24 10:21:33;;;;;;;3.90;2.63;;;;;;;20.30;33.83;96486.88;5033112;28;20064;-67
2021/09/24 10:23:59;;;;;;;4.18;2.80;;;;;;;20.27;31.81;96483.59;5033113;28;20049;-67
2021/09/24 10:26:31;;;;;;;2.92;2.50;;;;;;;20.48;32.81;96473.09;5033090;28;20490;-67
2021/09/24 10:29:13;;;;;;;6.15;2.30;;;;;;;20.61;32.75;96467.63;5033165;28;20035;-67
2021/09/24 10:31:48;;;;;;;3.45;2.55;;;;;;;20.74;31.96;96470.13;5033082;28;20028;-67
2021/09/24 10:34:15;;;;;;;5.35;2.60;;;;;;;20.79;32.45;96454.66;5033092;28;20040;-67
2021/09/24 10:36:42;;;;;;;5.25;2.80;;;;;;;20.96;32.48;96457.81;5033025;28;20026;-67
2021/09/24 10:39:29;;;;;;;3.80;2.40;;;;;;;21.11;32.54;96453.03;5032964;28;20017;-67
2021/09/24 10:42:33;;;;;;;5.00;2.40;;;;;;;21.25;32.09;96451.88;5032936;28;20033;-67
2021/09/24 10:45:11;;;;;;;2.42;2.20;;;;;;;21.30;29.80;96447.03;5011163;28;20037;-67
2021/09/24 10:48:09;;;;;;;4.18;2.70;;;;;;;21.35;31.83;96449.31;5011007;28;20026;-67
2021/09/24 10:50:38;;;;;;;2.60;2.40;;;;;;;21.33;31.22;96444.13;5027728;28;20461;-67
2021/09/24 10:53:09;;;;;;;2.78;2.53;;;;;;;21.44;30.11;96437.91;5032865;28;20033;-67
2021/09/24 10:55:36;;;;;;;3.80;2.50;;;;;;;21.49;31.28;96439.34;5032801;28;20072;-67
2021/09/24 10:58:02;;;;;;;3.00;2.42;;;;;;;21.66;31.93;96422.78;5032832;28;20025;-67
2021/09/24 11:00:30;;;;;;;3.22;2.30;;;;;;;21.64;30.04;96419.38;5031452;28;20583;-67
2021/09/24 11:03:07;;;;;;;6.97;2.88;;;;;;;21.66;30.55;96408.63;5032724;28;20026;-67
2021/09/24 11:06:09;;;;;;;7.88;2.40;;;;;;;21.75;29.00;96396.34;5032750;28;20381;-67
2021/09/24 11:08:38;;;;;;;2.22;2.03;;;;;;;21.72;30.43;96386.81;5014784;28;20038;-67
2021/09/24 11:11:22;;;;;;;2.70;2.35;;;;;;;21.78;30.20;96372.16;5032684;28;20063;-67
2021/09/24 11:13:51;;;;;;;2.33;2.08;;;;;;;21.79;31.34;96372.00;5036218;28;20081;-67
2021/09/24 11:16:22;;;;;;;9.77;2.40;;;;;;;21.70;31.37;96370.97;5036383;28;20050;-67
2021/09/24 11:18:49;;;;;;;3.45;2.35;;;;;;;21.65;30.29;96375.84;5036467;28;20022;-67
2021/09/24 11:21:22;;;;;;;2.78;2.47;;;;;;;21.70;30.23;96378.09;5036275;28;20364;-67
2021/09/24 11:23:50;;;;;;;4.60;2.15;;;;;;;21.83;29.86;96376.09;5036382;28;20081;-67
2021/09/24 11:26:25;;;;;;;6.88;2.42;;;;;;;21.79;30.81;96385.31;5036371;28;20484;-67
2021/09/24 11:29:10;;;;;;;3.15;2.28;;;;;;;21.99;31.45;96381.91;5036137;28;20026;-67
2021/09/24 11:31:54;;;;;;;3.13;2.45;;;;;;;22.04;32.03;96369.91;5036274;28;20104;-67
2021/09/24 11:34:38;;;;;;;2.85;2.20;;;;;;;21.87;31.10;96375.84;5036078;28;20036;-67
2021/09/24 11:37:08;;;;;;;3.20;2.60;;;;;;;22.06;30.31;96383.91;5036086;28;20364;-67
2021/09/24 11:39:35;;;;;;;3.10;2.17;;;;;;;22.11;31.18;96377.31;5036063;28;20407;-67